createdAt,value
2018-03-16T00:00:37.923Z,82.1
2018-03-16T00:01:18.459Z,82.1
2018-03-16T00:01:59.035Z,82.1
2018-03-16T00:02:39.601Z,82.24
2018-03-16T00:03:20.136Z,82.1
2018-03-16T00:04:00.660Z,82.1
2018-03-16T00:04:41.206Z,82.1
2018-03-16T00:05:21.777Z,82.76
2018-03-16T00:06:02.393Z,82.29
2018-03-16T00:06:42.934Z,82.57
2018-03-16T00:07:23.468Z,82.1
2018-03-16T00:08:04.080Z,81.82
2018-03-16T00:08:44.640Z,82.57
2018-03-16T00:09:25.216Z,82.01
2018-03-16T00:10:05.836Z,82.2
2018-03-16T00:10:46.409Z,82.2
2018-03-16T00:11:26.963Z,81.92
2018-03-16T00:12:07.503Z,82.2
2018-03-16T00:12:48.051Z,82.67
2018-03-16T00:13:28.684Z,81.92
2018-03-16T00:14:09.210Z,81.92
2018-03-16T00:14:49.750Z,82.2
2018-03-16T00:15:30.283Z,82.2
2018-03-16T00:16:10.858Z,82.1
2018-03-16T00:16:51.475Z,82.01
2018-03-16T00:17:32.027Z,82.67
2018-03-16T00:18:12.568Z,81.82
2018-03-16T00:18:53.182Z,82.39
2018-03-16T00:19:33.751Z,82.01
2018-03-16T00:20:14.405Z,81.92
2018-03-16T00:20:54.937Z,82.57
2018-03-16T00:21:35.492Z,81.82
2018-03-16T00:22:16.070Z,81.92
2018-03-16T00:22:56.654Z,81.82
2018-03-16T00:23:37.214Z,81.82
2018-03-16T00:24:17.766Z,81.72
2018-03-16T00:24:58.325Z,82.2
2018-03-16T00:25:38.940Z,82.2
2018-03-16T00:26:19.439Z,82.76
2018-03-16T00:27:00.061Z,81.72
2018-03-16T00:27:40.589Z,82.1
2018-03-16T00:28:21.192Z,81.82
2018-03-16T00:29:01.751Z,82.01
2018-03-16T00:29:42.317Z,82.29
2018-03-16T00:30:22.859Z,82.2
2018-03-16T00:31:03.435Z,82.29
2018-03-16T00:31:44.005Z,82.67
2018-03-16T00:32:24.552Z,82.57
2018-03-16T00:33:05.139Z,82.57
2018-03-16T00:33:45.766Z,82.48
2018-03-16T00:34:26.327Z,82.57
2018-03-16T00:35:06.896Z,82.67
2018-03-16T00:35:47.421Z,82.2
2018-03-16T00:36:27.989Z,82.2
2018-03-16T00:37:08.547Z,82.76
2018-03-16T00:37:49.132Z,82.01
2018-03-16T00:38:29.720Z,82.57
2018-03-16T00:39:10.329Z,82.1
2018-03-16T00:39:50.849Z,82.57
2018-03-16T00:40:31.428Z,82.48
2018-03-16T00:41:11.954Z,82.01
2018-03-16T00:41:52.557Z,82.39
2018-03-16T00:42:33.117Z,82.29
2018-03-16T00:43:13.661Z,82.29
2018-03-16T00:43:54.209Z,82.2
2018-03-16T00:44:34.770Z,82.29
2018-03-16T00:45:15.301Z,82.39
2018-03-16T00:45:55.900Z,81.82
2018-03-16T00:46:36.474Z,81.72
2018-03-16T00:47:17.018Z,82.2
2018-03-16T00:47:57.578Z,82.29
2018-03-16T00:48:38.135Z,82.39
2018-03-16T00:49:18.693Z,82.2
2018-03-16T00:49:59.280Z,82.39
2018-03-16T00:50:39.804Z,82.29
2018-03-16T00:51:20.335Z,81.72
2018-03-16T00:52:00.931Z,81.72
2018-03-16T00:52:41.532Z,81.72
2018-03-16T00:53:22.155Z,81.82
2018-03-16T00:54:02.694Z,82.29
2018-03-16T00:54:43.277Z,82.67
2018-03-16T00:55:23.857Z,81.82
2018-03-16T00:56:04.392Z,82.39
2018-03-16T00:56:44.958Z,82.2
2018-03-16T00:57:25.501Z,82.2
2018-03-16T00:58:06.062Z,81.92
2018-03-16T00:58:46.615Z,82.57
2018-03-16T00:59:27.149Z,82.48
2018-03-16T01:00:07.736Z,82.67
2018-03-16T01:00:48.279Z,82.48
2018-03-16T01:01:28.830Z,82.86
2018-03-16T01:02:09.382Z,82.1
2018-03-16T01:02:50.134Z,82.01
2018-03-16T01:03:30.670Z,82.1
2018-03-16T01:04:11.229Z,82.57
2018-03-16T01:04:51.785Z,82.67
2018-03-16T01:05:32.407Z,82.2
2018-03-16T01:06:12.999Z,82.39
2018-03-16T01:06:53.622Z,82.01
2018-03-16T01:07:34.259Z,82.29
2018-03-16T01:08:14.804Z,82.1
2018-03-16T01:08:55.403Z,82.39
2018-03-16T01:09:35.941Z,82.1
2018-03-16T01:10:16.491Z,82.2
2018-03-16T01:10:57.052Z,81.82
2018-03-16T01:11:37.620Z,82.2
2018-03-16T01:12:18.174Z,82.2
2018-03-16T01:12:58.746Z,82.01
2018-03-16T01:13:39.314Z,82.2
2018-03-16T01:14:19.873Z,81.92
2018-03-16T01:15:00.424Z,81.92
2018-03-16T01:15:40.975Z,81.92
2018-03-16T01:16:21.533Z,81.82
2018-03-16T01:17:02.118Z,82.2
2018-03-16T01:17:42.676Z,81.92
2018-03-16T01:18:23.233Z,81.82
2018-03-16T01:19:03.798Z,82.01
2018-03-16T01:19:44.337Z,81.82
2018-03-16T01:20:24.911Z,81.92
2018-03-16T01:21:05.491Z,81.92
2018-03-16T01:21:46.051Z,81.72
2018-03-16T01:22:26.597Z,81.92
2018-03-16T01:23:07.136Z,81.72
2018-03-16T01:23:47.710Z,82.01
2018-03-16T01:24:28.261Z,82.2
2018-03-16T01:25:08.808Z,82.01
2018-03-16T01:25:49.441Z,82.29
2018-03-16T01:26:29.973Z,81.82
2018-03-16T01:27:10.522Z,81.92
2018-03-16T01:27:51.068Z,81.92
2018-03-16T01:28:31.625Z,82.01
2018-03-16T01:29:12.175Z,82.1
2018-03-16T01:29:52.731Z,82.1
2018-03-16T01:30:33.287Z,81.53
2018-03-16T01:31:13.836Z,81.72
2018-03-16T01:31:54.407Z,81.06
2018-03-16T01:32:34.959Z,81.63
2018-03-16T01:33:15.500Z,81.34
2018-03-16T01:33:56.051Z,81.44
2018-03-16T01:34:36.596Z,81.34
2018-03-16T01:35:17.146Z,81.53
2018-03-16T01:35:57.696Z,81.34
2018-03-16T01:36:38.269Z,81.34
2018-03-16T01:37:18.834Z,81.15
2018-03-16T01:37:59.388Z,81.25
2018-03-16T01:38:39.925Z,81.34
2018-03-16T01:39:20.472Z,81.34
2018-03-16T01:40:01.013Z,81.44
2018-03-16T01:40:41.565Z,81.34
2018-03-16T01:41:22.108Z,81.53
2018-03-16T01:42:02.656Z,81.53
2018-03-16T01:42:43.206Z,81.44
2018-03-16T01:43:23.753Z,81.53
2018-03-16T01:44:04.307Z,81.06
2018-03-16T01:44:44.974Z,80.87
2018-03-16T01:45:25.603Z,80.68
2018-03-16T01:46:06.164Z,80.87
2018-03-16T01:46:46.702Z,80.87
2018-03-16T01:47:27.257Z,80.4
2018-03-16T01:48:07.819Z,80.49
2018-03-16T01:48:48.372Z,80.49
2018-03-16T01:49:28.963Z,79.93
2018-03-16T01:50:09.541Z,80.58
2018-03-16T01:50:50.103Z,80.58
2018-03-16T01:51:30.680Z,80.58
2018-03-16T01:52:11.265Z,80.58
2018-03-16T01:52:51.813Z,79.93
2018-03-16T01:53:32.369Z,80.11
2018-03-16T01:54:12.941Z,79.93
2018-03-16T01:54:53.484Z,79.93
2018-03-16T01:55:34.051Z,80.02
2018-03-16T01:56:14.649Z,79.93
2018-03-16T01:56:55.198Z,80.11
2018-03-16T01:57:35.792Z,80.11
2018-03-16T01:58:16.351Z,79.93
2018-03-16T01:58:56.969Z,80.21
2018-03-16T01:59:37.491Z,80.21
2018-03-16T02:00:18.114Z,80.11
2018-03-16T02:00:58.676Z,80.11
2018-03-16T02:01:39.228Z,80.21
2018-03-16T02:02:19.775Z,80.02
2018-03-16T02:03:00.339Z,79.93
2018-03-16T02:03:40.901Z,79.55
2018-03-16T02:04:21.490Z,80.4
2018-03-16T02:05:02.049Z,80.3
2018-03-16T02:05:42.618Z,79.93
2018-03-16T02:06:23.180Z,80.02
2018-03-16T02:07:03.742Z,79.93
2018-03-16T02:07:44.304Z,79.74
2018-03-16T02:08:24.930Z,79.83
2018-03-16T02:09:05.546Z,79.64
2018-03-16T02:09:46.108Z,79.36
2018-03-16T02:10:26.658Z,79.26
2018-03-16T02:11:07.231Z,79.55
2018-03-16T02:11:47.812Z,79.45
2018-03-16T02:12:28.379Z,79.45
2018-03-16T02:13:08.919Z,79.26
2018-03-16T02:13:49.484Z,79.17
2018-03-16T02:14:30.048Z,79.17
2018-03-16T02:15:10.614Z,79.17
2018-03-16T02:15:51.188Z,79.36
2018-03-16T02:16:31.776Z,79.17
2018-03-16T02:17:12.333Z,78.5
2018-03-16T02:17:52.895Z,78.98
2018-03-16T02:18:33.482Z,78.69
2018-03-16T02:19:14.055Z,78.79
2018-03-16T02:19:54.612Z,78.69
2018-03-16T02:20:35.168Z,78.59
2018-03-16T02:21:15.717Z,78.98
2018-03-16T02:21:56.267Z,78.88
2018-03-16T02:22:36.823Z,78.59
2018-03-16T02:23:17.387Z,78.5
2018-03-16T02:23:57.970Z,78.88
2018-03-16T02:24:38.527Z,78.79
2018-03-16T02:25:19.117Z,78.69
2018-03-16T02:25:59.699Z,78.88
2018-03-16T02:26:40.250Z,78.31
2018-03-16T02:27:20.827Z,78.31
2018-03-16T02:28:01.380Z,78.41
2018-03-16T02:28:41.948Z,78.88
2018-03-16T02:29:22.517Z,78.69
2018-03-16T02:30:03.075Z,78.03
2018-03-16T02:30:43.648Z,78.03
2018-03-16T02:31:24.198Z,78.41
2018-03-16T02:32:04.764Z,78.03
2018-03-16T02:32:45.310Z,78.41
2018-03-16T02:33:25.870Z,78.13
2018-03-16T02:34:06.431Z,78.13
2018-03-16T02:34:46.984Z,78.13
2018-03-16T02:35:27.539Z,77.75
2018-03-16T02:36:08.100Z,77.84
2018-03-16T02:36:48.664Z,77.94
2018-03-16T02:37:29.231Z,77.84
2018-03-16T02:38:09.816Z,77.75
2018-03-16T02:38:50.382Z,77.75
2018-03-16T02:39:30.939Z,77.56
2018-03-16T02:40:11.494Z,77.27
2018-03-16T02:40:52.045Z,77.56
2018-03-16T02:41:32.598Z,77.37
2018-03-16T02:42:13.169Z,77.94
2018-03-16T02:42:53.727Z,77.65
2018-03-16T02:43:34.287Z,77.84
2018-03-16T02:44:14.848Z,77.84
2018-03-16T02:44:55.400Z,77.65
2018-03-16T02:45:35.949Z,77.75
2018-03-16T02:46:16.504Z,77.65
2018-03-16T02:46:57.067Z,77.84
2018-03-16T02:47:37.647Z,77.46
2018-03-16T02:48:18.201Z,77.7
2018-03-16T02:48:58.748Z,77.65
2018-03-16T02:49:39.303Z,77.75
2018-03-16T02:50:19.873Z,77.65
2018-03-16T02:51:00.418Z,77.46
2018-03-16T02:51:41.006Z,77.46
2018-03-16T02:52:21.557Z,77.75
2018-03-16T02:53:02.108Z,77.23
2018-03-16T02:53:42.663Z,77.51
2018-03-16T02:54:23.223Z,77.23
2018-03-16T02:55:03.773Z,77.37
2018-03-16T02:55:44.329Z,77.56
2018-03-16T02:56:24.882Z,77.61
2018-03-16T02:57:05.458Z,77.65
2018-03-16T02:57:46.029Z,77.27
2018-03-16T02:58:26.590Z,76.99
2018-03-16T02:59:07.155Z,76.67
2018-03-16T02:59:47.727Z,76.86
2018-03-16T03:00:28.281Z,77.84
2018-03-16T03:01:08.828Z,77.42
2018-03-16T03:01:49.392Z,77.51
2018-03-16T03:02:29.963Z,77.33
2018-03-16T03:03:10.537Z,77.42
2018-03-16T03:03:51.082Z,77.33
2018-03-16T03:04:31.650Z,77.51
2018-03-16T03:05:12.197Z,77.61
2018-03-16T03:05:52.753Z,77.7
2018-03-16T03:06:33.316Z,77.42
2018-03-16T03:07:13.897Z,77.33
2018-03-16T03:07:54.445Z,77.33
2018-03-16T03:08:34.988Z,77.89
2018-03-16T03:09:15.541Z,77.8
2018-03-16T03:09:56.127Z,77.42
2018-03-16T03:10:36.692Z,77.51
2018-03-16T03:11:17.243Z,77.7
2018-03-16T03:11:57.841Z,77.61
2018-03-16T03:12:38.387Z,77.42
2018-03-16T03:13:19.110Z,77.42
2018-03-16T03:13:59.662Z,77.61
2018-03-16T03:14:40.229Z,77.33
2018-03-16T03:15:20.788Z,77.51
2018-03-16T03:16:01.344Z,77.14
2018-03-16T03:16:41.891Z,76.76
2018-03-16T03:17:22.441Z,77.04
2018-03-16T03:18:03.006Z,77.61
2018-03-16T03:18:43.561Z,77.84
2018-03-16T03:19:24.175Z,77.61
2018-03-16T03:20:04.732Z,77.51
2018-03-16T03:20:45.298Z,76.99
2018-03-16T03:21:25.859Z,77.04
2018-03-16T03:22:06.409Z,76.95
2018-03-16T03:22:46.976Z,76.67
2018-03-16T03:23:27.549Z,77.04
2018-03-16T03:24:08.109Z,76.48
2018-03-16T03:24:48.675Z,76.57
2018-03-16T03:25:29.219Z,76.86
2018-03-16T03:26:09.782Z,76.67
2018-03-16T03:26:50.335Z,77.18
2018-03-16T03:27:30.889Z,77.33
2018-03-16T03:28:11.448Z,77.61
2018-03-16T03:28:52.010Z,77.61
2018-03-16T03:29:32.564Z,76.8
2018-03-16T03:30:13.115Z,76.48
2018-03-16T03:30:53.681Z,77.08
2018-03-16T03:31:34.264Z,76.99
2018-03-16T03:32:14.814Z,77.18
2018-03-16T03:32:55.374Z,77.08
2018-03-16T03:33:35.936Z,76.99
2018-03-16T03:34:16.547Z,76.8
2018-03-16T03:34:57.061Z,76.61
2018-03-16T03:35:37.622Z,76.42
2018-03-16T03:36:18.216Z,76.67
2018-03-16T03:36:58.778Z,76.48
2018-03-16T03:37:39.355Z,76.38
2018-03-16T03:38:19.914Z,76.48
2018-03-16T03:39:00.470Z,76.19
2018-03-16T03:39:41.025Z,76.57
2018-03-16T03:40:21.580Z,76.57
2018-03-16T03:41:02.154Z,76.76
2018-03-16T03:41:42.710Z,76.95
2018-03-16T03:42:23.284Z,76.95
2018-03-16T03:43:03.867Z,76.99
2018-03-16T03:43:44.418Z,76.38
2018-03-16T03:44:24.984Z,76.48
2018-03-16T03:45:05.532Z,77.14
2018-03-16T03:45:46.101Z,77.04
2018-03-16T03:46:26.664Z,76.67
2018-03-16T03:47:07.224Z,76.86
2018-03-16T03:47:47.778Z,76.95
2018-03-16T03:48:28.325Z,76.76
2018-03-16T03:49:08.882Z,76.86
2018-03-16T03:49:49.443Z,76.95
2018-03-16T03:50:30.002Z,76.95
2018-03-16T03:51:10.567Z,77.51
2018-03-16T03:51:51.120Z,77.51
2018-03-16T03:52:31.675Z,76.67
2018-03-16T03:53:12.229Z,76.67
2018-03-16T03:53:52.792Z,76.86
2018-03-16T03:54:33.342Z,77.14
2018-03-16T03:55:13.896Z,76.95
2018-03-16T03:55:54.443Z,76.67
2018-03-16T03:56:35.011Z,76.86
2018-03-16T03:57:15.574Z,77.04
2018-03-16T03:57:56.157Z,77.51
2018-03-16T03:58:36.749Z,77.33
2018-03-16T03:59:17.293Z,77.51
2018-03-16T03:59:57.853Z,77.33
2018-03-16T04:00:38.404Z,77.33
2018-03-16T04:01:18.953Z,77.7
2018-03-16T04:01:59.522Z,77.61
2018-03-16T04:02:40.077Z,77.33
2018-03-16T04:03:20.640Z,77.33
2018-03-16T04:04:01.229Z,76.86
2018-03-16T04:04:41.799Z,77.7
2018-03-16T04:05:22.368Z,76.76
2018-03-16T04:06:02.931Z,77.14
2018-03-16T04:06:43.497Z,77.33
2018-03-16T04:07:24.041Z,77.42
2018-03-16T04:08:04.622Z,77.51
2018-03-16T04:08:45.159Z,77.33
2018-03-16T04:09:25.726Z,77.51
2018-03-16T04:10:06.292Z,77.51
2018-03-16T04:10:46.870Z,77.8
2018-03-16T04:11:27.424Z,77.33
2018-03-16T04:12:07.995Z,77.33
2018-03-16T04:12:48.559Z,77.7
2018-03-16T04:13:29.106Z,77.33
2018-03-16T04:14:09.657Z,77.42
2018-03-16T04:14:50.242Z,77.61
2018-03-16T04:15:30.787Z,77.61
2018-03-16T04:16:11.355Z,77.33
2018-03-16T04:16:51.915Z,77.51
2018-03-16T04:17:32.478Z,77.51
2018-03-16T04:18:13.035Z,77.8
2018-03-16T04:18:53.586Z,77.8
2018-03-16T04:19:34.139Z,77.89
2018-03-16T04:20:14.695Z,77.61
2018-03-16T04:20:55.246Z,77.7
2018-03-16T04:21:35.809Z,77.7
2018-03-16T04:22:16.372Z,77.8
2018-03-16T04:22:56.916Z,77.8
2018-03-16T04:23:37.478Z,77.42
2018-03-16T04:24:18.038Z,77.42
2018-03-16T04:24:58.595Z,77.7
2018-03-16T04:25:39.154Z,77.99
2018-03-16T04:26:19.707Z,77.8
2018-03-16T04:27:00.265Z,78.27
2018-03-16T04:27:40.831Z,77.99
2018-03-16T04:28:21.390Z,78.18
2018-03-16T04:29:01.946Z,78.27
2018-03-16T04:29:42.511Z,78.37
2018-03-16T04:30:23.064Z,78.27
2018-03-16T04:31:03.623Z,77.89
2018-03-16T04:31:44.189Z,77.7
2018-03-16T04:32:24.750Z,77.33
2018-03-16T04:33:05.301Z,77.8
2018-03-16T04:33:45.858Z,77.61
2018-03-16T04:34:26.406Z,77.42
2018-03-16T04:35:06.960Z,77.8
2018-03-16T04:35:47.508Z,77.89
2018-03-16T04:36:28.062Z,77.89
2018-03-16T04:37:08.619Z,77.51
2018-03-16T04:37:49.173Z,77.89
2018-03-16T04:38:29.735Z,77.61
2018-03-16T04:39:10.328Z,77.7
2018-03-16T04:39:50.893Z,77.7
2018-03-16T04:40:31.463Z,77.61
2018-03-16T04:41:12.036Z,77.42
2018-03-16T04:41:52.610Z,77.51
2018-03-16T04:42:33.187Z,77.42
2018-03-16T04:43:13.739Z,77.51
2018-03-16T04:43:54.284Z,77.51
2018-03-16T04:44:34.852Z,77.61
2018-03-16T04:45:15.437Z,77.14
2018-03-16T04:45:55.995Z,76.86
2018-03-16T04:46:36.545Z,77.33
2018-03-16T04:47:17.109Z,77.33
2018-03-16T04:47:57.712Z,77.61
2018-03-16T04:48:38.275Z,77.51
2018-03-16T04:49:18.827Z,77.51
2018-03-16T04:49:59.374Z,77.61
2018-03-16T04:50:39.929Z,77.61
2018-03-16T04:51:20.497Z,77.61
2018-03-16T04:52:01.052Z,77.23
2018-03-16T04:52:41.631Z,76.76
2018-03-16T04:53:22.201Z,77.51
2018-03-16T04:54:02.740Z,77.61
2018-03-16T04:54:43.291Z,77.42
2018-03-16T04:55:23.858Z,77.61
2018-03-16T04:56:04.409Z,77.51
2018-03-16T04:56:44.966Z,77.42
2018-03-16T04:57:25.629Z,77.42
2018-03-16T04:58:06.194Z,77.33
2018-03-16T04:58:46.756Z,77.33
2018-03-16T04:59:27.322Z,77.7
2018-03-16T05:00:07.879Z,77.42
2018-03-16T05:00:48.434Z,77.7
2018-03-16T05:01:29.009Z,76.67
2018-03-16T05:02:09.575Z,76.86
2018-03-16T05:02:50.150Z,76.95
2018-03-16T05:03:30.711Z,77.51
2018-03-16T05:04:11.266Z,76.95
2018-03-16T05:04:51.836Z,77.8
2018-03-16T05:05:32.396Z,77.51
2018-03-16T05:06:12.965Z,77.7
2018-03-16T05:06:53.535Z,77.61
2018-03-16T05:07:34.094Z,77.51
2018-03-16T05:08:14.648Z,77.42
2018-03-16T05:08:55.213Z,77.8
2018-03-16T05:09:35.784Z,77.33
2018-03-16T05:10:16.360Z,77.61
2018-03-16T05:10:56.931Z,77.42
2018-03-16T05:11:37.493Z,77.33
2018-03-16T05:12:18.088Z,77.51
2018-03-16T05:12:58.629Z,77.7
2018-03-16T05:13:39.196Z,77.51
2018-03-16T05:14:19.791Z,76.86
2018-03-16T05:15:00.354Z,76.76
2018-03-16T05:15:40.949Z,77.8
2018-03-16T05:16:21.501Z,77.42
2018-03-16T05:17:02.082Z,77.33
2018-03-16T05:17:42.631Z,77.61
2018-03-16T05:18:23.190Z,77.7
2018-03-16T05:19:03.736Z,77.61
2018-03-16T05:19:44.290Z,77.42
2018-03-16T05:20:24.835Z,77.8
2018-03-16T05:21:05.412Z,77.7
2018-03-16T05:21:45.987Z,77.8
2018-03-16T05:22:26.568Z,77.61
2018-03-16T05:23:07.146Z,77.33
2018-03-16T05:23:47.748Z,77.23
2018-03-16T05:24:28.272Z,77.33
2018-03-16T05:25:08.832Z,77.7
2018-03-16T05:25:49.398Z,77.7
2018-03-16T05:26:29.978Z,77.8
2018-03-16T05:27:10.545Z,77.8
2018-03-16T05:27:51.100Z,77.89
2018-03-16T05:28:31.680Z,77.51
2018-03-16T05:29:12.232Z,77.42
2018-03-16T05:29:52.806Z,77.51
2018-03-16T05:30:33.392Z,77.23
2018-03-16T05:31:13.946Z,77.42
2018-03-16T05:31:54.506Z,77.42
2018-03-16T05:32:35.078Z,77.33
2018-03-16T05:33:15.629Z,77.33
2018-03-16T05:33:56.195Z,77.8
2018-03-16T05:34:36.740Z,77.51
2018-03-16T05:35:17.304Z,77.42
2018-03-16T05:35:57.845Z,77.51
2018-03-16T05:36:38.407Z,77.8
2018-03-16T05:37:18.983Z,77.61
2018-03-16T05:37:59.554Z,77.61
2018-03-16T05:38:40.100Z,77.8
2018-03-16T05:39:20.670Z,77.8
2018-03-16T05:40:01.235Z,77.61
2018-03-16T05:40:41.810Z,77.7
2018-03-16T05:41:22.345Z,77.42
2018-03-16T05:42:02.904Z,77.61
2018-03-16T05:42:43.447Z,77.61
2018-03-16T05:43:24.003Z,77.14
2018-03-16T05:44:04.553Z,77.42
2018-03-16T05:44:45.119Z,77.42
2018-03-16T05:45:25.677Z,77.33
2018-03-16T05:46:06.253Z,77.23
2018-03-16T05:46:46.850Z,77.61
2018-03-16T05:47:27.414Z,77.33
2018-03-16T05:48:07.969Z,77.04
2018-03-16T05:48:48.512Z,77.33
2018-03-16T05:49:29.088Z,76.86
2018-03-16T05:50:09.656Z,77.33
2018-03-16T05:50:50.240Z,76.86
2018-03-16T05:51:30.834Z,76.86
2018-03-16T05:52:11.396Z,76.67
2018-03-16T05:52:52.232Z,76.95
2018-03-16T05:53:32.759Z,76.86
2018-03-16T05:54:13.614Z,76.95
2018-03-16T05:54:54.218Z,77.04
2018-03-16T05:55:34.767Z,76.76
2018-03-16T05:56:15.351Z,77.04
2018-03-16T05:56:55.886Z,76.95
2018-03-16T05:57:36.550Z,76.67
2018-03-16T05:58:17.045Z,76.86
2018-03-16T05:58:57.825Z,76.95
2018-03-16T05:59:38.404Z,77.51
2018-03-16T06:00:19.106Z,77.42
2018-03-16T06:00:59.810Z,77.61
2018-03-16T06:01:40.372Z,77.33
2018-03-16T06:02:20.923Z,76.95
2018-03-16T06:03:01.510Z,77.14
2018-03-16T06:03:42.156Z,76.67
2018-03-16T06:04:22.736Z,76.86
2018-03-16T06:05:03.294Z,77.14
2018-03-16T06:05:43.852Z,77.04
2018-03-16T06:06:24.400Z,76.76
2018-03-16T06:07:04.972Z,76.67
2018-03-16T06:07:45.545Z,76.86
2018-03-16T06:08:26.118Z,76.57
2018-03-16T06:09:06.945Z,77.23
2018-03-16T06:09:47.494Z,76.67
2018-03-16T06:10:28.054Z,76.86
2018-03-16T06:11:15.427Z,76.86
2018-03-16T06:12:09.331Z,76.38
2018-03-16T06:12:49.912Z,76.95
2018-03-16T06:13:30.441Z,76.95
2018-03-16T06:14:10.995Z,77.14
2018-03-16T06:14:51.601Z,76.86
2018-03-16T06:15:32.385Z,76.67
2018-03-16T06:16:13.991Z,77.04
2018-03-16T06:16:54.621Z,76.29
2018-03-16T06:17:35.141Z,76.38
2018-03-16T06:18:15.691Z,76.48
2018-03-16T06:18:56.307Z,76.53
2018-03-16T06:19:36.876Z,76.86
2018-03-16T06:20:17.436Z,80.36
2018-03-16T06:20:57.995Z,82.53
2018-03-16T06:21:38.546Z,82.44
2018-03-16T06:22:19.103Z,82.06
2018-03-16T06:22:59.660Z,79.74
2018-03-16T06:23:40.205Z,77.56
2018-03-16T06:24:20.762Z,76.99
2018-03-16T06:25:01.322Z,77.56
2018-03-16T06:25:41.898Z,76.23
2018-03-16T06:26:22.461Z,74.33
2018-03-16T06:27:03.021Z,72.92
2018-03-16T06:27:43.587Z,73.01
2018-03-16T06:28:24.155Z,74.71
2018-03-16T06:29:04.757Z,74.33
2018-03-16T06:29:45.363Z,74.05
2018-03-16T06:30:25.912Z,72.92
2018-03-16T06:31:06.492Z,73.39
2018-03-16T06:31:47.056Z,72.63
2018-03-16T06:32:27.701Z,71.69
2018-03-16T06:33:08.260Z,71.69
2018-03-16T06:33:48.920Z,72.16
2018-03-16T06:34:29.520Z,73.2
2018-03-16T06:35:10.078Z,73.58
2018-03-16T06:35:50.634Z,72.34
2018-03-16T06:36:31.221Z,72.16
2018-03-16T06:37:11.788Z,71.78
2018-03-16T06:37:52.844Z,72.25
2018-03-16T06:38:32.906Z,71.97
2018-03-16T06:39:13.484Z,71.88
2018-03-16T06:39:54.036Z,72.31
2018-03-16T06:40:34.586Z,72.03
2018-03-16T06:41:15.282Z,72.6
2018-03-16T06:41:55.844Z,72.6
2018-03-16T06:42:36.377Z,73.07
2018-03-16T06:43:17.008Z,73.45
2018-03-16T06:43:57.513Z,73.16
2018-03-16T06:44:38.206Z,73.35
2018-03-16T06:45:18.783Z,73.26
2018-03-16T06:45:59.403Z,73.35
2018-03-16T06:46:40.136Z,73.26
2018-03-16T06:47:20.749Z,73.54
2018-03-16T06:48:01.329Z,73.35
2018-03-16T06:48:42.686Z,73.16
2018-03-16T06:49:23.287Z,73.26
2018-03-16T06:50:03.945Z,73.54
2018-03-16T06:50:44.740Z,73.45
2018-03-16T06:51:25.372Z,73.35
2018-03-16T06:52:06.948Z,74.02
2018-03-16T06:52:47.569Z,73.83
2018-03-16T06:53:28.242Z,73.35
2018-03-16T06:54:08.936Z,73.83
2018-03-16T06:54:49.546Z,73.54
2018-03-16T06:55:30.148Z,73.64
2018-03-16T06:56:10.718Z,73.83
2018-03-16T06:56:51.275Z,74.02
2018-03-16T06:57:31.872Z,74.02
2018-03-16T06:58:12.597Z,74.11
2018-03-16T06:58:53.263Z,74.11
2018-03-16T06:59:33.854Z,74.11
2018-03-16T07:00:14.629Z,74.21
2018-03-16T07:00:55.324Z,73.73
2018-03-16T07:01:36.020Z,74.11
2018-03-16T07:02:16.680Z,74.11
2018-03-16T07:02:57.255Z,73.83
2018-03-16T07:03:38.106Z,73.92
2018-03-16T07:04:18.628Z,74.02
2018-03-16T07:04:59.297Z,73.83
2018-03-16T07:05:39.910Z,73.92
2018-03-16T07:06:20.491Z,74.11
2018-03-16T07:07:01.057Z,74.26
2018-03-16T07:07:41.652Z,74.4
2018-03-16T07:08:22.309Z,74.49
2018-03-16T07:09:02.879Z,74.49
2018-03-16T07:09:43.434Z,74.11
2018-03-16T07:10:23.992Z,74.02
2018-03-16T07:11:04.567Z,73.35
2018-03-16T07:11:45.135Z,73.45
2018-03-16T07:12:25.697Z,73.79
2018-03-16T07:13:06.255Z,73.98
2018-03-16T07:13:46.845Z,74.11
2018-03-16T07:14:27.407Z,73.98
2018-03-16T07:15:07.978Z,73.98
2018-03-16T07:15:48.534Z,74.3
2018-03-16T07:16:29.113Z,73.79
2018-03-16T07:17:09.651Z,73.98
2018-03-16T07:17:50.221Z,74.26
2018-03-16T07:18:30.753Z,74.36
2018-03-16T07:19:11.312Z,73.69
2018-03-16T07:19:51.878Z,74.26
2018-03-16T07:20:32.441Z,74.17
2018-03-16T07:21:13.023Z,74.26
2018-03-16T07:21:53.613Z,74.17
2018-03-16T07:22:34.161Z,74.45
2018-03-16T07:23:14.763Z,74.36
2018-03-16T07:23:55.314Z,74.45
2018-03-16T07:24:35.919Z,74.36
2018-03-16T07:25:16.466Z,74.26
2018-03-16T07:25:57.045Z,74.17
2018-03-16T07:26:37.657Z,74.17
2018-03-16T07:27:18.214Z,73.98
2018-03-16T07:27:58.834Z,73.88
2018-03-16T07:28:39.319Z,73.79
2018-03-16T07:29:19.887Z,73.98
2018-03-16T07:32:40.532Z,73.45
2018-03-16T07:33:21.114Z,73.5
2018-03-16T07:34:01.702Z,73.41
2018-03-16T07:34:42.239Z,73.32
2018-03-16T07:35:22.784Z,73.79
2018-03-16T07:36:03.341Z,74.07
2018-03-16T07:36:43.945Z,73.22
2018-03-16T07:37:24.623Z,73.64
2018-03-16T07:38:05.881Z,73.98
2018-03-16T07:38:46.477Z,73.88
2018-03-16T07:39:27.065Z,73.54
2018-03-16T07:40:07.644Z,73.41
2018-03-16T07:40:48.152Z,73.5
2018-03-16T07:41:28.698Z,73.5
2018-03-16T07:42:09.232Z,73.6
2018-03-16T07:42:49.786Z,73.6
2018-03-16T07:43:30.366Z,73.41
2018-03-16T07:44:10.948Z,73.45
2018-03-16T07:44:51.496Z,73.22
2018-03-16T07:45:32.116Z,73.32
2018-03-16T07:46:12.665Z,73.45
2018-03-16T07:46:53.212Z,73.45
2018-03-16T07:47:33.855Z,72.75
2018-03-16T07:48:14.359Z,73.13
2018-03-16T07:48:54.940Z,72.85
2018-03-16T07:49:35.497Z,73.07
2018-03-16T07:50:16.078Z,73.03
2018-03-16T07:50:56.618Z,73.03
2018-03-16T07:51:37.153Z,73.13
2018-03-16T07:52:17.695Z,73.13
2018-03-16T07:52:58.262Z,73.13
2018-03-16T07:53:38.888Z,73.5
2018-03-16T07:54:19.364Z,73.13
2018-03-16T07:54:59.923Z,73.32
2018-03-16T07:55:40.525Z,73.22
2018-03-16T07:56:21.085Z,73.32
2018-03-16T07:57:01.634Z,73.41
2018-03-16T07:57:42.174Z,73.32
2018-03-16T07:58:22.795Z,73.6
2018-03-16T07:59:03.341Z,73.5
2018-03-16T07:59:43.889Z,73.22
2018-03-16T08:00:24.460Z,73.79
2018-03-16T08:01:05.751Z,73.5
2018-03-16T08:01:46.276Z,73.5
2018-03-16T08:02:26.842Z,73.88
2018-03-16T08:03:07.370Z,73.41
2018-03-16T08:03:47.924Z,73.41
2018-03-16T08:04:28.518Z,72.85
2018-03-16T08:05:09.049Z,72.94
2018-03-16T08:05:49.600Z,72.94
2018-03-16T08:06:30.138Z,72.94
2018-03-16T08:07:10.670Z,72.75
2018-03-16T08:07:51.224Z,72.69
2018-03-16T08:08:31.765Z,73.03
2018-03-16T08:09:12.338Z,73.03
2018-03-16T08:09:52.884Z,73.03
2018-03-16T08:10:33.516Z,73.07
2018-03-16T08:11:14.819Z,72.69
2018-03-16T08:11:55.548Z,72.69
2018-03-16T08:12:36.088Z,72.41
2018-03-16T08:13:16.636Z,71.84
2018-03-16T08:13:57.211Z,72.03
2018-03-16T08:14:37.774Z,71.8
2018-03-16T08:15:18.404Z,72.12
2018-03-16T08:15:58.899Z,72.41
2018-03-16T08:16:39.523Z,72.41
2018-03-16T08:17:20.099Z,72.41
2018-03-16T08:18:00.635Z,72.5
2018-03-16T08:18:41.182Z,72.22
2018-03-16T08:19:21.718Z,71.74
2018-03-16T08:20:02.333Z,72.12
2018-03-16T08:20:42.865Z,71.93
2018-03-16T08:21:23.470Z,72.03
2018-03-16T08:22:04.031Z,72.03
2018-03-16T08:22:44.581Z,72.22
2018-03-16T08:23:25.137Z,71.9
2018-03-16T08:24:05.686Z,71.65
2018-03-16T08:24:46.279Z,71.99
2018-03-16T08:25:26.845Z,72.09
2018-03-16T08:26:07.514Z,72.03
2018-03-16T08:26:48.092Z,71.9
2018-03-16T08:27:28.650Z,71.8
2018-03-16T08:28:09.594Z,71.9
2018-03-16T08:28:50.069Z,72.09
2018-03-16T08:29:30.663Z,71.8
2018-03-16T08:30:11.201Z,72.28
2018-03-16T08:30:51.779Z,71.99
2018-03-16T08:31:32.445Z,72.28
2018-03-16T08:32:13.064Z,72.37
2018-03-16T08:32:53.528Z,72.37
2018-03-16T08:33:34.100Z,72.37
2018-03-16T08:34:14.664Z,72.66
2018-03-16T08:34:55.240Z,72.28
2018-03-16T08:35:35.800Z,72.28
2018-03-16T08:36:16.357Z,72.28
2018-03-16T08:36:56.969Z,72.37
2018-03-16T08:37:37.516Z,72.09
2018-03-16T08:38:18.066Z,72.09
2018-03-16T08:38:58.622Z,72.28
2018-03-16T08:39:39.183Z,72.37
2018-03-16T08:40:19.734Z,71.8
2018-03-16T08:41:00.315Z,71.71
2018-03-16T08:41:40.884Z,71.9
2018-03-16T08:42:21.462Z,71.99
2018-03-16T08:43:02.006Z,72.56
2018-03-16T08:43:42.587Z,72.37
2018-03-16T08:44:23.127Z,72.66
2018-03-16T08:45:03.671Z,72.56
2018-03-16T08:45:44.224Z,72.56
2018-03-16T08:46:24.778Z,73.03
2018-03-16T08:47:05.329Z,73.13
2018-03-16T08:47:45.875Z,72.85
2018-03-16T08:48:26.458Z,72.66